createdAt,value
2022-08-07T00:00:47.378Z,0
2022-08-07T00:02:03.664Z,0
2022-08-07T00:03:19.956Z,0
2022-08-07T00:04:36.250Z,0
2022-08-07T00:05:51.552Z,0
2022-08-07T00:07:07.863Z,0
2022-08-07T00:08:24.150Z,0
2022-08-07T00:09:40.444Z,0
2022-08-07T00:10:56.735Z,0
2022-08-07T00:12:13.028Z,0
2022-08-07T00:13:29.340Z,0
2022-08-07T00:14:45.632Z,0
2022-08-07T00:16:01.914Z,0
2022-08-07T00:17:18.211Z,0
2022-08-07T00:18:34.505Z,0
2022-08-07T00:19:50.792Z,0
2022-08-07T00:21:07.098Z,0
2022-08-07T00:22:22.406Z,0
2022-08-07T00:23:38.702Z,0
2022-08-07T00:24:55.003Z,0
2022-08-07T00:26:11.298Z,0
2022-08-07T00:27:27.584Z,0
2022-08-07T00:28:43.870Z,0
2022-08-07T00:30:00.177Z,0
2022-08-07T00:31:16.474Z,0
2022-08-07T00:32:32.000Z,0
2022-08-07T00:33:49.050Z,0
2022-08-07T00:35:05.351Z,0
2022-08-07T00:36:21.644Z,0
2022-08-07T00:37:37.930Z,0
2022-08-07T00:38:53.240Z,0
2022-08-07T00:41:25.837Z,0
2022-08-07T00:42:42.124Z,0
2022-08-07T00:43:58.427Z,0
2022-08-07T00:45:14.715Z,0
2022-08-07T00:46:31.012Z,0
2022-08-07T00:47:47.323Z,0
2022-08-07T00:49:03.612Z,0
2022-08-07T00:50:19.899Z,0
2022-08-07T00:51:36.191Z,0
2022-08-07T00:52:52.493Z,0
2022-08-07T00:54:08.783Z,0
2022-08-07T00:55:24.101Z,0
2022-08-07T00:56:40.378Z,0
2022-08-07T00:57:56.674Z,0
2022-08-07T00:59:12.967Z,0
2022-08-07T01:00:29.262Z,0
2022-08-07T01:01:45.576Z,0
2022-08-07T01:03:01.861Z,0
2022-08-07T01:04:18.162Z,0
2022-08-07T01:05:34.451Z,0
2022-08-07T01:06:50.742Z,0
2022-08-07T01:08:07.040Z,0
2022-08-07T01:09:23.333Z,0
2022-08-07T01:10:39.622Z,0
2022-08-07T01:11:54.943Z,0
2022-08-07T01:13:11.225Z,0
2022-08-07T01:14:27.521Z,0
2022-08-07T01:15:43.825Z,0
2022-08-07T01:17:00.125Z,0
2022-08-07T01:18:16.399Z,0
2022-08-07T01:19:32.698Z,0
2022-08-07T01:20:49.000Z,0
2022-08-07T01:22:05.297Z,0
2022-08-07T01:23:21.592Z,0
2022-08-07T01:24:37.880Z,0
2022-08-07T01:27:10.468Z,0
2022-08-07T01:28:25.789Z,0
2022-08-07T01:29:42.071Z,0
2022-08-07T01:30:58.366Z,0
2022-08-07T01:32:14.662Z,0
2022-08-07T01:33:30.951Z,0
2022-08-07T01:34:47.000Z,0
2022-08-07T01:36:03.539Z,0
2022-08-07T01:37:19.843Z,0
2022-08-07T01:38:36.134Z,0
2022-08-07T01:39:52.426Z,0
2022-08-07T01:41:08.732Z,0
2022-08-07T01:42:25.024Z,0
2022-08-07T01:43:41.309Z,0
2022-08-07T01:44:56.627Z,0
2022-08-07T01:46:12.911Z,0
2022-08-07T01:47:29.203Z,0
2022-08-07T01:48:45.506Z,0
2022-08-07T01:50:01.803Z,0
2022-08-07T01:51:18.090Z,0
2022-08-07T01:52:34.385Z,0
2022-08-07T01:53:50.675Z,0
2022-08-07T01:55:06.973Z,0
2022-08-07T01:56:23.282Z,0
2022-08-07T01:57:39.560Z,0
2022-08-07T01:58:55.857Z,0
2022-08-07T02:00:12.150Z,0
2022-08-07T02:01:27.470Z,0
2022-08-07T02:02:43.761Z,0
2022-08-07T02:04:00.061Z,0
2022-08-07T02:05:16.363Z,0
2022-08-07T02:06:32.656Z,0
2022-08-07T02:07:48.951Z,0
2022-08-07T02:09:05.239Z,0
2022-08-07T02:10:21.534Z,0
2022-08-07T02:11:37.819Z,0
2022-08-07T02:12:54.116Z,0
2022-08-07T02:14:10.406Z,0
2022-08-07T02:15:26.716Z,0
2022-08-07T02:16:43.011Z,0
2022-08-07T02:17:58.309Z,0
2022-08-07T02:19:14.611Z,0
2022-08-07T02:20:30.911Z,0
2022-08-07T02:21:47.199Z,0
2022-08-07T02:23:03.489Z,0
2022-08-07T02:24:19.778Z,0
2022-08-07T02:25:36.070Z,0
2022-08-07T02:26:52.367Z,0
2022-08-07T02:28:08.660Z,0
2022-08-07T02:29:24.964Z,0
2022-08-07T02:30:41.251Z,0
2022-08-07T02:31:57.553Z,0
2022-08-07T02:33:13.855Z,0
2022-08-07T02:34:29.149Z,0
2022-08-07T02:35:45.446Z,0
2022-08-07T02:37:01.752Z,0
2022-08-07T02:38:18.035Z,0
2022-08-07T02:39:34.330Z,0
2022-08-07T02:40:50.629Z,0
2022-08-07T02:42:06.927Z,0
2022-08-07T02:43:23.228Z,0
2022-08-07T02:44:39.504Z,0
2022-08-07T02:45:55.802Z,0
2022-08-07T02:47:12.095Z,0
2022-08-07T02:48:28.395Z,0
2022-08-07T02:49:44.629Z,1
2022-08-07T02:51:00.927Z,0
2022-08-07T02:52:16.237Z,0
2022-08-07T02:53:32.530Z,0
2022-08-07T02:54:48.822Z,0
2022-08-07T02:56:05.085Z,1
2022-08-07T02:57:21.328Z,1
2022-08-07T02:58:37.610Z,0
2022-08-07T02:59:53.906Z,0
2022-08-07T03:01:10.211Z,0
2022-08-07T03:02:26.504Z,0
2022-08-07T03:03:42.763Z,1
2022-08-07T03:04:59.043Z,0
2022-08-07T03:06:15.301Z,2
2022-08-07T03:07:31.550Z,1
2022-08-07T03:08:46.804Z,2
2022-08-07T03:10:03.043Z,5
2022-08-07T03:11:19.271Z,1
2022-08-07T03:13:51.752Z,2
2022-08-07T03:15:07.021Z,5
2022-08-07T03:16:23.259Z,6
2022-08-07T03:17:39.491Z,6
2022-08-07T03:18:55.742Z,8
2022-08-07T03:20:11.984Z,9
2022-08-07T03:21:28.220Z,12
2022-08-07T03:24:00.710Z,15
2022-08-07T03:25:16.948Z,16
2022-08-07T03:26:33.185Z,26
2022-08-07T03:27:49.415Z,30
2022-08-07T03:29:05.670Z,39
2022-08-07T03:30:21.900Z,49
2022-08-07T03:31:37.157Z,64
2022-08-07T03:32:53.396Z,72
2022-08-07T03:34:09.638Z,85
2022-08-07T03:35:25.888Z,96
2022-08-07T03:36:42.126Z,110
2022-08-07T03:37:58.364Z,123
2022-08-07T03:39:14.607Z,139
2022-08-07T03:40:30.838Z,159
2022-08-07T03:41:47.095Z,180
2022-08-07T03:43:03.320Z,201
2022-08-07T03:44:19.560Z,218
2022-08-07T03:46:52.054Z,268
2022-08-07T03:48:07.301Z,293
2022-08-07T03:49:23.542Z,312
2022-08-07T03:50:39.787Z,271
2022-08-07T03:51:56.019Z,220
2022-08-07T03:53:12.259Z,245
2022-08-07T03:54:28.501Z,336
2022-08-07T03:55:44.753Z,386
2022-08-07T03:57:00.994Z,428
2022-08-07T03:59:33.459Z,552
2022-08-07T04:00:49.717Z,564
2022-08-07T04:02:05.957Z,636
2022-08-07T04:03:22.186Z,628
2022-08-07T04:04:37.449Z,612
2022-08-07T04:07:09.934Z,831
2022-08-07T04:09:41.420Z,1078
2022-08-07T04:10:56.683Z,1267
2022-08-07T04:12:11.940Z,1420
2022-08-07T04:13:28.181Z,1444
2022-08-07T04:14:44.422Z,1521
2022-08-07T04:16:00.679Z,1879
2022-08-07T04:17:16.920Z,1982
2022-08-07T04:18:33.143Z,1775
2022-08-07T04:19:49.401Z,1607
2022-08-07T04:21:05.624Z,2387
2022-08-07T04:22:21.874Z,2432
2022-08-07T04:23:38.118Z,1368
2022-08-07T04:24:53.369Z,1808
2022-08-07T04:26:08.638Z,3767
2022-08-07T04:27:24.867Z,2974
2022-08-07T04:28:41.120Z,4222
2022-08-07T04:29:57.352Z,8823
2022-08-07T04:31:13.600Z,8701
2022-08-07T04:32:29.827Z,6623
2022-08-07T04:33:46.081Z,4664
2022-08-07T04:35:02.307Z,2454
2022-08-07T04:36:18.552Z,1915
2022-08-07T04:37:34.791Z,1873
2022-08-07T04:38:51.026Z,1852
2022-08-07T04:40:07.264Z,1857
2022-08-07T04:41:23.514Z,1866
2022-08-07T04:42:38.766Z,1876
2022-08-07T04:43:55.011Z,1887
2022-08-07T04:45:11.249Z,1900
2022-08-07T04:46:27.483Z,1914
2022-08-07T04:47:43.730Z,1929
2022-08-07T04:48:59.972Z,1944
2022-08-07T04:50:16.203Z,1955
2022-08-07T04:51:32.462Z,1968
2022-08-07T04:52:48.692Z,1979
2022-08-07T04:54:04.938Z,1991
2022-08-07T04:55:21.183Z,2001
2022-08-07T04:56:37.422Z,2013
2022-08-07T04:57:53.663Z,2020
2022-08-07T05:00:25.145Z,2028
2022-08-07T05:01:41.392Z,2012
2022-08-07T05:02:57.622Z,1997
2022-08-07T05:04:13.875Z,1991
2022-08-07T05:05:30.117Z,1998
2022-08-07T05:06:46.355Z,2035
2022-08-07T05:08:02.594Z,2106
2022-08-07T05:09:18.834Z,2167
2022-08-07T05:10:35.082Z,2198
2022-08-07T05:11:51.323Z,2209
2022-08-07T05:13:07.565Z,2218
2022-08-07T05:15:40.030Z,2237
2022-08-07T05:16:55.305Z,2249
2022-08-07T05:18:11.535Z,2261
2022-08-07T05:19:27.775Z,2274
2022-08-07T05:20:44.019Z,2285
2022-08-07T05:22:00.262Z,2295
2022-08-07T05:23:16.491Z,2303
2022-08-07T05:24:32.736Z,2303
2022-08-07T05:25:48.976Z,2308
2022-08-07T05:27:05.226Z,2316
2022-08-07T05:28:21.457Z,2320
2022-08-07T05:29:37.695Z,2327
2022-08-07T05:30:53.941Z,2336
2022-08-07T05:32:10.179Z,2346
2022-08-07T05:33:25.428Z,2363
2022-08-07T05:34:41.681Z,2370
2022-08-07T05:35:57.924Z,2382
2022-08-07T05:37:14.148Z,2394
2022-08-07T05:38:30.402Z,2407
2022-08-07T05:39:46.649Z,2419
2022-08-07T05:41:02.880Z,2423
2022-08-07T05:42:19.116Z,2422
2022-08-07T05:43:35.352Z,2415
2022-08-07T05:44:51.609Z,2418
2022-08-07T05:46:07.851Z,2428
2022-08-07T05:47:24.093Z,2431
2022-08-07T05:48:40.326Z,2432
2022-08-07T05:49:55.571Z,2448
2022-08-07T05:51:11.811Z,2465
2022-08-07T05:52:28.053Z,2483
2022-08-07T05:53:44.290Z,2494
2022-08-07T05:55:00.539Z,2503
2022-08-07T05:56:16.775Z,2507
2022-08-07T05:57:33.013Z,2511
2022-08-07T05:58:49.268Z,2510
2022-08-07T06:00:05.489Z,2503
2022-08-07T06:01:21.740Z,2513
2022-08-07T06:02:37.977Z,2529
2022-08-07T06:03:54.215Z,2539
2022-08-07T06:05:10.471Z,2540
2022-08-07T06:06:25.712Z,2529
2022-08-07T06:07:41.948Z,2533
2022-08-07T06:08:58.202Z,2542
2022-08-07T06:10:14.436Z,2541
2022-08-07T06:11:30.681Z,2551
2022-08-07T06:12:46.920Z,2565
2022-08-07T06:14:03.151Z,2578
2022-08-07T06:15:19.397Z,2601
2022-08-07T06:16:35.637Z,2625
2022-08-07T06:17:51.877Z,2644
2022-08-07T06:19:08.125Z,2656
2022-08-07T06:20:24.369Z,2668
2022-08-07T06:21:40.601Z,2680
2022-08-07T06:22:55.862Z,2687
2022-08-07T06:24:12.089Z,2695
2022-08-07T06:25:28.345Z,2703
2022-08-07T06:26:44.569Z,2709
2022-08-07T06:28:00.816Z,2716
2022-08-07T06:29:17.066Z,2723
2022-08-07T06:30:33.292Z,2726
2022-08-07T06:31:49.529Z,2730
2022-08-07T06:33:05.778Z,2732
2022-08-07T06:34:22.026Z,2736
2022-08-07T06:35:38.262Z,2735
2022-08-07T06:36:54.496Z,2734
2022-08-07T06:38:10.747Z,2735
2022-08-07T06:39:26.003Z,2728
2022-08-07T06:40:42.241Z,2723
2022-08-07T06:41:58.485Z,2718
2022-08-07T06:43:14.709Z,2715
2022-08-07T06:44:30.947Z,2711
2022-08-07T06:45:47.199Z,2706
2022-08-07T06:47:03.431Z,2702
2022-08-07T06:48:19.668Z,2700
2022-08-07T06:49:35.915Z,2694
2022-08-07T06:50:52.160Z,2689
2022-08-07T06:52:08.407Z,2685
2022-08-07T06:53:24.637Z,2679
2022-08-07T06:54:40.887Z,2676
2022-08-07T06:55:56.132Z,2677
2022-08-07T06:57:12.374Z,2664
2022-08-07T06:58:28.620Z,2645
2022-08-07T06:59:44.856Z,2638
2022-08-07T07:01:01.097Z,2642
2022-08-07T07:02:17.339Z,2643
2022-08-07T07:03:33.577Z,2633
2022-08-07T07:04:49.810Z,2632
2022-08-07T07:06:06.052Z,2653
2022-08-07T07:07:22.297Z,2659
2022-08-07T07:08:38.529Z,2658
2022-08-07T07:09:54.770Z,2652
2022-08-07T07:11:11.010Z,2649
2022-08-07T07:12:26.279Z,2645
2022-08-07T07:13:42.515Z,2638
2022-08-07T07:14:58.755Z,2632
2022-08-07T07:16:14.993Z,2629
2022-08-07T07:17:31.241Z,2626
2022-08-07T07:18:47.473Z,2620
2022-08-07T07:20:03.719Z,2614
2022-08-07T07:21:19.950Z,2609
2022-08-07T07:22:36.193Z,2603
2022-08-07T07:23:52.437Z,2598
2022-08-07T07:25:08.672Z,2594
2022-08-07T07:26:24.916Z,2590
2022-08-07T07:27:41.155Z,2584
2022-08-07T07:28:56.403Z,2580
2022-08-07T07:30:11.663Z,2578
2022-08-07T07:31:27.909Z,2573
2022-08-07T07:32:44.148Z,2570
2022-08-07T07:34:00.399Z,2569
2022-08-07T07:35:16.619Z,2567
2022-08-07T07:36:32.865Z,2560
2022-08-07T07:37:49.098Z,2558
2022-08-07T07:39:05.345Z,2556
2022-08-07T07:40:21.579Z,2551
2022-08-07T07:41:37.830Z,2550
2022-08-07T07:42:54.061Z,2548
2022-08-07T07:44:10.316Z,2547
2022-08-07T07:45:26.545Z,2544
2022-08-07T07:46:41.800Z,2542
2022-08-07T07:47:58.044Z,2541
2022-08-07T07:49:14.287Z,2538
2022-08-07T07:50:30.527Z,2536
2022-08-07T07:51:46.767Z,2537
2022-08-07T07:53:03.007Z,2536
2022-08-07T07:54:19.234Z,2536
2022-08-07T07:55:35.493Z,2533
2022-08-07T07:56:51.714Z,2530
2022-08-07T07:58:07.973Z,2527
2022-08-07T07:59:24.203Z,2518
2022-08-07T08:00:40.447Z,2518
2022-08-07T08:01:56.684Z,2515
2022-08-07T08:03:11.944Z,2514
2022-08-07T08:04:28.183Z,2512
2022-08-07T08:05:44.424Z,2511
2022-08-07T08:07:00.650Z,2507
2022-08-07T08:08:16.902Z,2505
2022-08-07T08:09:33.149Z,2503
2022-08-07T08:10:49.378Z,2505
2022-08-07T08:12:05.630Z,2508
2022-08-07T08:13:21.871Z,2513
2022-08-07T08:14:38.093Z,2518
2022-08-07T08:15:54.338Z,2526
2022-08-07T08:17:10.573Z,2541
2022-08-07T08:18:26.822Z,2557
2022-08-07T08:19:42.066Z,2574
2022-08-07T08:20:58.326Z,2587
2022-08-07T08:22:14.554Z,2604
2022-08-07T08:23:30.802Z,2609
2022-08-07T08:24:47.028Z,2638
2022-08-07T08:26:03.284Z,2682
2022-08-07T08:27:19.507Z,2713
2022-08-07T08:28:35.755Z,2720
2022-08-07T08:29:51.990Z,2728
2022-08-07T08:31:08.233Z,2758
2022-08-07T08:33:40.728Z,2824
2022-08-07T08:34:56.956Z,2871
2022-08-07T08:37:28.442Z,2905
2022-08-07T08:38:44.683Z,2775
2022-08-07T08:40:00.927Z,2782
2022-08-07T08:41:17.157Z,2999
2022-08-07T08:42:33.401Z,3073
2022-08-07T08:43:49.640Z,2990
2022-08-07T08:45:05.887Z,2898
2022-08-07T08:46:22.127Z,3043
2022-08-07T08:47:38.363Z,3355
2022-08-07T08:48:54.603Z,3469
2022-08-07T08:50:10.842Z,3410
2022-08-07T08:51:27.080Z,4235
2022-08-07T08:52:42.334Z,4393
2022-08-07T08:53:58.571Z,4619
2022-08-07T08:55:14.823Z,4873
2022-08-07T08:56:31.066Z,4804
2022-08-07T08:57:47.292Z,4991
2022-08-07T08:59:03.547Z,4948
2022-08-07T09:00:19.786Z,4721
2022-08-07T09:01:36.021Z,4350
2022-08-07T09:02:52.256Z,4119
2022-08-07T09:04:08.487Z,4117
2022-08-07T09:05:24.739Z,4238
2022-08-07T09:06:40.987Z,4336
2022-08-07T09:07:57.220Z,4320
2022-08-07T09:09:12.482Z,4299
2022-08-07T09:10:28.711Z,4448
2022-08-07T09:11:44.959Z,4373
2022-08-07T09:13:01.189Z,4445
2022-08-07T09:14:17.432Z,4496
2022-08-07T09:15:33.672Z,4412
2022-08-07T09:16:49.927Z,4342
2022-08-07T09:19:22.389Z,4513
2022-08-07T09:20:38.634Z,4533
2022-08-07T09:21:54.873Z,4827
2022-08-07T09:23:11.110Z,5025
2022-08-07T09:24:27.351Z,5170
2022-08-07T09:25:42.606Z,5424
2022-08-07T09:26:58.848Z,5450
2022-08-07T09:28:15.089Z,5367
2022-08-07T09:29:31.325Z,5111
2022-08-07T09:30:47.568Z,4865
2022-08-07T09:32:03.815Z,4589
2022-08-07T09:33:20.052Z,4424
2022-08-07T09:34:36.288Z,4427
2022-08-07T09:35:52.532Z,4628
2022-08-07T09:37:08.773Z,4958
2022-08-07T09:38:25.011Z,4932
2022-08-07T09:39:41.243Z,4611
2022-08-07T09:42:13.733Z,3857
2022-08-07T09:43:28.983Z,3645
2022-08-07T09:44:45.230Z,3477
2022-08-07T09:46:01.463Z,3248
2022-08-07T09:47:17.706Z,3128
2022-08-07T09:49:50.191Z,3331
2022-08-07T09:51:06.437Z,3306
2022-08-07T09:52:22.676Z,3365
2022-08-07T09:53:38.911Z,3430
2022-08-07T09:54:55.152Z,3418
2022-08-07T09:56:11.389Z,3381
2022-08-07T09:57:27.635Z,3402
2022-08-07T09:58:43.878Z,3429
2022-08-07T09:59:59.132Z,3421
2022-08-07T10:01:15.365Z,3392
2022-08-07T10:02:31.604Z,3380
2022-08-07T10:03:47.840Z,3376
2022-08-07T10:05:04.093Z,3352
2022-08-07T10:06:20.338Z,3321
2022-08-07T10:07:36.565Z,3272
2022-08-07T10:08:52.819Z,3235
2022-08-07T10:10:09.056Z,3225
2022-08-07T10:11:25.296Z,3213
2022-08-07T10:12:41.539Z,3191
2022-08-07T10:13:57.781Z,3136
2022-08-07T10:15:14.024Z,3110
2022-08-07T10:16:29.259Z,3076
2022-08-07T10:17:45.501Z,3023
2022-08-07T10:19:01.752Z,3085
2022-08-07T10:20:17.978Z,3256
2022-08-07T10:21:34.238Z,3357
2022-08-07T10:22:50.461Z,3375
2022-08-07T10:24:06.714Z,3292
2022-08-07T10:25:22.941Z,3180
2022-08-07T10:26:39.186Z,3117
2022-08-07T10:27:55.429Z,3076
2022-08-07T10:29:11.670Z,3094
2022-08-07T10:30:27.911Z,3136
2022-08-07T10:31:44.158Z,3175
2022-08-07T10:32:59.414Z,3185
2022-08-07T10:34:15.641Z,3153
2022-08-07T10:35:31.877Z,3098
2022-08-07T10:36:48.122Z,3036
2022-08-07T10:38:04.372Z,3022
2022-08-07T10:39:20.606Z,2985
2022-08-07T10:40:36.839Z,2933
2022-08-07T10:41:53.079Z,2937
2022-08-07T10:43:09.321Z,2936
2022-08-07T10:44:25.556Z,2926
2022-08-07T10:45:41.812Z,2921
2022-08-07T10:46:58.051Z,2914
2022-08-07T10:48:14.294Z,2887
2022-08-07T10:49:29.545Z,2843
2022-08-07T10:50:45.782Z,2822
2022-08-07T10:52:02.030Z,2814
2022-08-07T10:53:18.266Z,2801
2022-08-07T10:54:34.500Z,2796
2022-08-07T10:55:50.750Z,2799
2022-08-07T10:57:06.975Z,2816
2022-08-07T10:58:23.213Z,2843
2022-08-07T10:59:39.466Z,2868
2022-08-07T11:00:55.701Z,2878
2022-08-07T11:02:11.934Z,2879
2022-08-07T11:03:28.189Z,2903
2022-08-07T11:04:44.444Z,2890
2022-08-07T11:05:59.687Z,2875
2022-08-07T11:07:15.929Z,2892
2022-08-07T11:08:32.168Z,2889
2022-08-07T11:09:48.408Z,2893
2022-08-07T11:11:04.630Z,2905
2022-08-07T11:13:37.122Z,2918
2022-08-07T11:14:53.364Z,2900
2022-08-07T11:16:09.591Z,2874
2022-08-07T11:17:25.845Z,2841
2022-08-07T11:18:42.072Z,2811
2022-08-07T11:19:58.321Z,2814
2022-08-07T11:21:14.552Z,2823
2022-08-07T11:22:29.819Z,2819
2022-08-07T11:23:46.053Z,2784
2022-08-07T11:25:02.296Z,2737
2022-08-07T11:26:18.535Z,2713
2022-08-07T11:27:34.770Z,2701
2022-08-07T11:28:51.020Z,2695
2022-08-07T11:30:07.251Z,2698
2022-08-07T11:31:23.507Z,2702
2022-08-07T11:32:39.741Z,2697
2022-08-07T11:33:55.983Z,2681
2022-08-07T11:35:12.228Z,2667
2022-08-07T11:36:28.460Z,2659
2022-08-07T11:37:44.703Z,2657
2022-08-07T11:38:59.955Z,2657
2022-08-07T11:40:16.192Z,2650
2022-08-07T11:41:32.438Z,2637
2022-08-07T11:44:04.919Z,2626
2022-08-07T11:45:20.182Z,2620
2022-08-07T11:46:36.424Z,2617
2022-08-07T11:47:52.656Z,2613
2022-08-07T11:49:08.900Z,2611
2022-08-07T11:50:25.147Z,2599
2022-08-07T11:51:41.386Z,2586
2022-08-07T11:52:57.611Z,2580
2022-08-07T11:54:13.869Z,2579
2022-08-07T11:55:30.108Z,2581
2022-08-07T11:56:46.347Z,2582
2022-08-07T11:58:02.584Z,2579
2022-08-07T11:59:18.814Z,2571
2022-08-07T12:00:35.064Z,2568
2022-08-07T12:01:50.326Z,2573
2022-08-07T12:03:06.556Z,2574
2022-08-07T12:04:22.801Z,2572
2022-08-07T12:05:39.035Z,2573
2022-08-07T12:06:55.285Z,2567
2022-08-07T12:08:11.514Z,2566
2022-08-07T12:09:27.755Z,2560
2022-08-07T12:10:44.004Z,2563
2022-08-07T12:12:00.243Z,2563
2022-08-07T12:13:16.468Z,2563
2022-08-07T12:14:32.715Z,2567
2022-08-07T12:15:48.951Z,2575
2022-08-07T12:17:05.188Z,2576
2022-08-07T12:18:20.448Z,2579
2022-08-07T12:19:36.698Z,2581
2022-08-07T12:20:52.941Z,2585
2022-08-07T12:22:09.169Z,2587
2022-08-07T12:23:25.424Z,2593
2022-08-07T12:24:41.652Z,2596
2022-08-07T12:25:57.885Z,2597
2022-08-07T12:27:14.142Z,2601
2022-08-07T12:28:30.367Z,2602
2022-08-07T12:29:46.618Z,2608
2022-08-07T12:31:02.853Z,2605
2022-08-07T12:32:19.089Z,2611
2022-08-07T12:33:35.344Z,2615
2022-08-07T12:34:50.596Z,2614
2022-08-07T12:36:06.829Z,2608
2022-08-07T12:37:23.072Z,2608
2022-08-07T12:38:39.315Z,2618
2022-08-07T12:39:55.553Z,2621
2022-08-07T12:41:11.795Z,2630
2022-08-07T12:42:28.039Z,2633
2022-08-07T12:45:00.510Z,2642
2022-08-07T12:46:16.759Z,2644
2022-08-07T12:47:33.000Z,2645
2022-08-07T12:48:49.225Z,2649
2022-08-07T12:50:05.470Z,2655
2022-08-07T12:51:20.738Z,2661
2022-08-07T12:52:36.972Z,2664
2022-08-07T12:53:53.200Z,2666
2022-08-07T12:55:09.452Z,2682
2022-08-07T12:56:25.691Z,2683
2022-08-07T12:57:41.921Z,2690
2022-08-07T12:58:58.179Z,2696
2022-08-07T13:00:14.418Z,2702
2022-08-07T13:01:30.656Z,2701
2022-08-07T13:02:46.887Z,2702
2022-08-07T13:04:03.119Z,2698
2022-08-07T13:05:19.361Z,2701
2022-08-07T13:06:35.609Z,2697
2022-08-07T13:07:51.840Z,2692
2022-08-07T13:09:07.107Z,2698
2022-08-07T13:10:23.346Z,2711
2022-08-07T13:11:39.583Z,2718
2022-08-07T13:12:55.816Z,2717
2022-08-07T13:14:12.067Z,2721
2022-08-07T13:15:28.296Z,2730
2022-08-07T13:16:44.549Z,2727
2022-08-07T13:18:00.796Z,2730
2022-08-07T13:19:17.035Z,2737
2022-08-07T13:20:33.270Z,2736
2022-08-07T13:21:49.497Z,2736
2022-08-07T13:23:05.744Z,2742
2022-08-07T13:24:21.978Z,2743
2022-08-07T13:25:37.246Z,2742
2022-08-07T13:26:53.485Z,2743
2022-08-07T13:28:09.732Z,2745
2022-08-07T13:29:25.961Z,2757
2022-08-07T13:30:42.198Z,2759
2022-08-07T13:31:58.441Z,2755
2022-08-07T13:33:14.675Z,2760
2022-08-07T13:34:30.922Z,2765
2022-08-07T13:35:47.155Z,2766
2022-08-07T13:37:03.403Z,2764
2022-08-07T13:38:19.648Z,2766
2022-08-07T13:39:35.896Z,2782
2022-08-07T13:40:52.130Z,2795
2022-08-07T13:42:07.377Z,2791
2022-08-07T13:43:23.623Z,2795
2022-08-07T13:44:39.857Z,2805
2022-08-07T13:45:56.096Z,2825
2022-08-07T13:47:12.353Z,2834
2022-08-07T13:48:28.586Z,2831
2022-08-07T13:49:44.831Z,2834
2022-08-07T13:51:01.063Z,2846
2022-08-07T13:52:17.299Z,2861
2022-08-07T13:53:33.547Z,2865
2022-08-07T13:54:49.780Z,2866
2022-08-07T13:56:06.029Z,2870
2022-08-07T13:57:22.257Z,2879
2022-08-07T13:58:37.528Z,2902
2022-08-07T13:59:53.762Z,2930
2022-08-07T14:01:09.996Z,2959
2022-08-07T14:02:26.244Z,3027
2022-08-07T14:03:42.481Z,3130
2022-08-07T14:04:58.727Z,3210
2022-08-07T14:06:14.960Z,3189
2022-08-07T14:07:31.214Z,3130
2022-08-07T14:08:47.453Z,3115
2022-08-07T14:11:19.916Z,3046
2022-08-07T14:12:36.171Z,3013
2022-08-07T14:13:52.406Z,2978
2022-08-07T14:15:07.658Z,3006
2022-08-07T14:16:23.895Z,3071
2022-08-07T14:17:40.144Z,3101
2022-08-07T14:18:56.395Z,3081
2022-08-07T14:20:12.615Z,3108
2022-08-07T14:21:28.863Z,3147
2022-08-07T14:22:45.106Z,3214
2022-08-07T14:24:01.353Z,3278
2022-08-07T14:25:17.580Z,3279
2022-08-07T14:26:33.835Z,3289
2022-08-07T14:27:50.075Z,3279
2022-08-07T14:29:06.300Z,3253
2022-08-07T14:30:22.548Z,3173
2022-08-07T14:31:37.796Z,3139
2022-08-07T14:32:54.042Z,3149
2022-08-07T14:34:10.273Z,3140
2022-08-07T14:35:26.528Z,3110
2022-08-07T14:37:58.997Z,3117
2022-08-07T14:39:15.248Z,3118
2022-08-07T14:40:31.476Z,3131
2022-08-07T14:41:47.729Z,3135
2022-08-07T14:43:03.958Z,3126
2022-08-07T14:44:20.193Z,3126
2022-08-07T14:46:52.674Z,3152
2022-08-07T14:48:07.930Z,3179
2022-08-07T14:49:24.190Z,3227
2022-08-07T14:50:40.418Z,3257
2022-08-07T14:51:56.669Z,3282
2022-08-07T14:53:12.900Z,3320
2022-08-07T14:54:29.142Z,3366
2022-08-07T14:55:45.374Z,3424
2022-08-07T14:57:01.624Z,3447
2022-08-07T14:58:17.869Z,3441
2022-08-07T14:59:34.112Z,3445
2022-08-07T15:00:50.338Z,3441
2022-08-07T15:02:06.586Z,3490
2022-08-07T15:03:22.824Z,3608
2022-08-07T15:04:38.085Z,3714
2022-08-07T15:05:54.320Z,3761
2022-08-07T15:07:10.555Z,3739
2022-08-07T15:08:26.810Z,3688
2022-08-07T15:09:43.045Z,3651
2022-08-07T15:10:59.272Z,3651
2022-08-07T15:12:15.527Z,3681
2022-08-07T15:13:31.755Z,3645
2022-08-07T15:14:48.002Z,3597
2022-08-07T15:16:04.249Z,3591
2022-08-07T15:17:20.486Z,3589
2022-08-07T15:18:36.731Z,3562
2022-08-07T15:19:52.957Z,3548
2022-08-07T15:21:08.221Z,3526
2022-08-07T15:22:24.452Z,3517
2022-08-07T15:24:56.934Z,3544
2022-08-07T15:26:13.182Z,3529
2022-08-07T15:27:29.413Z,3499
2022-08-07T15:28:45.652Z,3486
2022-08-07T15:30:01.904Z,3473
2022-08-07T15:32:34.385Z,3430
2022-08-07T15:33:50.622Z,3349
2022-08-07T15:35:06.854Z,3268
2022-08-07T15:36:23.108Z,3259
2022-08-07T15:37:38.366Z,3269
2022-08-07T15:38:54.604Z,3296
2022-08-07T15:40:10.841Z,3312
2022-08-07T15:41:27.070Z,3330
2022-08-07T15:42:43.324Z,3339
2022-08-07T15:43:59.555Z,3346
2022-08-07T15:45:15.799Z,3319
2022-08-07T15:46:32.036Z,3230
2022-08-07T15:47:48.286Z,3183
2022-08-07T15:49:04.518Z,3248
2022-08-07T15:50:20.768Z,3312
2022-08-07T15:51:36.993Z,3328
2022-08-07T15:52:53.246Z,3340
2022-08-07T15:54:08.504Z,3334
2022-08-07T15:55:24.726Z,3295
2022-08-07T15:56:40.977Z,3267
2022-08-07T15:57:57.221Z,3291
2022-08-07T15:59:13.450Z,3312
2022-08-07T16:00:28.723Z,3323
2022-08-07T16:01:44.959Z,3338
2022-08-07T16:03:01.202Z,3334
2022-08-07T16:04:17.439Z,3327
2022-08-07T16:05:33.673Z,3401
2022-08-07T16:06:49.916Z,3520
2022-08-07T16:08:06.169Z,3659
2022-08-07T16:09:22.390Z,1259
2022-08-07T16:10:38.637Z,2893
2022-08-07T16:11:54.884Z,14332
2022-08-07T16:13:11.126Z,14972
2022-08-07T16:14:27.361Z,10522
2022-08-07T16:15:43.601Z,14087
2022-08-07T16:16:58.862Z,16830
2022-08-07T16:18:15.107Z,17638
2022-08-07T16:20:47.576Z,12248
2022-08-07T16:22:03.822Z,11739
2022-08-07T16:23:20.058Z,13960
2022-08-07T16:25:52.531Z,14542
2022-08-07T16:27:08.770Z,11749
2022-08-07T16:28:25.010Z,12262
2022-08-07T16:29:41.261Z,13293
2022-08-07T16:30:57.498Z,14895
2022-08-07T16:33:29.982Z,13648
2022-08-07T16:34:45.237Z,10287
2022-08-07T16:36:00.505Z,11943
2022-08-07T16:37:16.742Z,10843
2022-08-07T16:38:32.984Z,10146
2022-08-07T16:39:49.223Z,9190
2022-08-07T16:41:05.454Z,10095
2022-08-07T16:42:21.698Z,9030
2022-08-07T16:43:37.951Z,7106
2022-08-07T16:44:54.188Z,11475
2022-08-07T16:46:10.427Z,9800
2022-08-07T16:48:42.911Z,9364
2022-08-07T16:49:59.147Z,11067
2022-08-07T16:51:15.385Z,8048
2022-08-07T16:52:30.644Z,8056
2022-08-07T16:53:46.887Z,7044
2022-08-07T16:55:03.122Z,7212
2022-08-07T16:56:19.364Z,8471
2022-08-07T16:57:35.596Z,7210
2022-08-07T16:58:51.840Z,8936
2022-08-07T17:00:08.075Z,8303
2022-08-07T17:01:24.000Z,7663
2022-08-07T17:02:39.582Z,7581
2022-08-07T17:03:54.833Z,10434
2022-08-07T17:05:11.086Z,5238
2022-08-07T17:06:27.322Z,6165
2022-08-07T17:07:43.567Z,6299
2022-08-07T17:08:59.806Z,8564
2022-08-07T17:10:16.044Z,8010
2022-08-07T17:11:32.290Z,4827
2022-08-07T17:12:48.514Z,5676
2022-08-07T17:14:04.761Z,6065
2022-08-07T17:15:20.994Z,6661
2022-08-07T17:16:37.242Z,6160
2022-08-07T17:17:53.475Z,5295
2022-08-07T17:19:09.716Z,6603
2022-08-07T17:20:24.981Z,6310
2022-08-07T17:21:41.228Z,5451
2022-08-07T17:22:57.451Z,5804
2022-08-07T17:24:13.703Z,5626
2022-08-07T17:25:29.936Z,6374
2022-08-07T17:26:46.188Z,4488
2022-08-07T17:28:02.423Z,5531
2022-08-07T17:29:18.658Z,4677
2022-08-07T17:30:34.911Z,1912
2022-08-07T17:31:51.141Z,5089
2022-08-07T17:33:07.381Z,5518
2022-08-07T17:34:23.613Z,4495
2022-08-07T17:35:39.868Z,3697
2022-08-07T17:36:55.129Z,2826
2022-08-07T17:38:11.369Z,3599
2022-08-07T17:39:27.597Z,3211
2022-08-07T17:40:43.832Z,2901
2022-08-07T17:42:00.082Z,3662
2022-08-07T17:43:16.319Z,3658
2022-08-07T17:44:32.556Z,3098
2022-08-07T17:45:48.793Z,2155
2022-08-07T17:47:05.052Z,2607
2022-08-07T17:48:21.280Z,2731